createdAt,value
2022-10-31T00:04:53.760Z,12.09
2022-10-31T00:09:55.271Z,12.03
2022-10-31T00:14:56.719Z,11.96
2022-10-31T00:19:58.136Z,11.88
2022-10-31T00:24:59.598Z,11.82
2022-10-31T00:30:01.079Z,11.73
2022-10-31T00:35:02.547Z,11.70
2022-10-31T00:40:04.468Z,11.65
2022-10-31T00:45:06.293Z,11.57
2022-10-31T00:50:09.254Z,11.54
2022-10-31T00:55:10.680Z,11.51
2022-10-31T01:00:12.597Z,11.49
2022-10-31T01:05:14.466Z,11.46
2022-10-31T01:10:16.277Z,11.41
2022-10-31T01:15:21.031Z,11.32
2022-10-31T01:20:22.543Z,11.23
2022-10-31T01:25:24.024Z,11.17
2022-10-31T01:30:25.506Z,11.15
2022-10-31T01:35:26.960Z,11.10
2022-10-31T01:40:31.211Z,11.07
2022-10-31T01:45:32.787Z,11.03
2022-10-31T01:50:39.262Z,11.00
2022-10-31T01:55:44.510Z,10.95
2022-10-31T02:00:50.058Z,10.88
2022-10-31T02:05:55.714Z,10.84
2022-10-31T02:10:59.048Z,10.80
2022-10-31T02:16:01.037Z,10.76
2022-10-31T02:21:11.017Z,10.67
2022-10-31T02:26:43.140Z,10.55
2022-10-31T02:32:11.290Z,10.53
2022-10-31T02:37:20.142Z,10.57
2022-10-31T02:42:32.960Z,10.58
2022-10-31T02:47:42.732Z,10.66
2022-10-31T02:52:44.358Z,10.70
2022-10-31T02:57:45.807Z,10.69
2022-10-31T03:03:16.716Z,10.66
2022-10-31T03:08:49.357Z,10.56
2022-10-31T03:13:53.079Z,10.60
2022-10-31T03:19:05.624Z,10.68
2022-10-31T03:24:10.402Z,10.67
2022-10-31T03:29:16.352Z,10.57
2022-10-31T03:34:20.400Z,10.44
2022-10-31T03:39:23.775Z,10.38
2022-10-31T03:44:28.053Z,10.37
2022-10-31T03:49:31.015Z,10.38
2022-10-31T03:54:35.432Z,10.38
2022-10-31T03:59:43.438Z,10.38
2022-10-31T04:04:47.224Z,10.37
2022-10-31T04:09:51.407Z,10.35
2022-10-31T04:14:54.567Z,10.34
2022-10-31T04:19:56.022Z,10.31
2022-10-31T04:24:57.507Z,10.27
2022-10-31T04:30:00.472Z,10.23
2022-10-31T04:35:01.983Z,10.22
2022-10-31T04:40:04.942Z,10.23
2022-10-31T04:45:06.894Z,10.23
2022-10-31T04:50:08.759Z,10.20
2022-10-31T04:55:11.996Z,10.16
2022-10-31T05:00:16.298Z,10.12
2022-10-31T05:05:20.134Z,10.11
2022-10-31T05:10:24.593Z,10.07
2022-10-31T05:15:27.498Z,10.00
2022-10-31T05:20:31.186Z,9.96
2022-10-31T05:25:32.687Z,9.95
2022-10-31T05:30:35.132Z,9.94
2022-10-31T05:35:36.609Z,9.93
2022-10-31T05:40:38.173Z,9.92
2022-10-31T05:45:39.640Z,9.90
2022-10-31T05:50:41.092Z,9.86
2022-10-31T05:55:43.792Z,9.83
2022-10-31T06:00:45.305Z,9.78
2022-10-31T06:05:50.664Z,9.72
2022-10-31T06:10:55.792Z,9.74
2022-10-31T06:15:57.296Z,9.79
2022-10-31T06:20:58.738Z,9.87
2022-10-31T06:26:00.191Z,10.01
2022-10-31T06:31:01.845Z,10.26
2022-10-31T06:36:03.645Z,10.46
2022-10-31T06:41:06.789Z,10.67
2022-10-31T06:46:08.306Z,11.00
2022-10-31T06:51:10.120Z,11.47
2022-10-31T06:56:11.573Z,12.44
2022-10-31T07:01:13.244Z,13.19
2022-10-31T07:06:14.853Z,14.03
2022-10-31T07:11:16.309Z,14.63
2022-10-31T07:16:17.845Z,15.32
2022-10-31T07:21:19.343Z,15.92
2022-10-31T07:26:20.929Z,16.16
2022-10-31T07:31:22.791Z,16.34
2022-10-31T07:36:24.524Z,16.56
2022-10-31T07:41:26.647Z,16.77
2022-10-31T07:46:28.102Z,17.02
2022-10-31T07:51:30.270Z,17.21
2022-10-31T07:56:31.779Z,17.40
2022-10-31T08:01:33.295Z,17.44
2022-10-31T08:06:35.379Z,17.77
2022-10-31T08:11:36.866Z,18.24
2022-10-31T08:16:38.384Z,18.50
2022-10-31T08:21:39.899Z,18.96
2022-10-31T08:26:41.340Z,19.46
2022-10-31T08:31:43.794Z,20.12
2022-10-31T08:36:47.168Z,20.59
2022-10-31T08:41:48.624Z,21.19
2022-10-31T08:46:50.088Z,21.76
2022-10-31T08:51:51.566Z,21.73
2022-10-31T08:56:56.733Z,21.74
2022-10-31T09:01:58.341Z,21.70
2022-10-31T09:07:20.642Z,21.62
2022-10-31T09:12:21.378Z,21.27
2022-10-31T09:17:22.932Z,21.29
2022-10-31T09:22:24.452Z,21.36
2022-10-31T09:27:25.904Z,21.63
2022-10-31T09:32:27.350Z,22.13
2022-10-31T09:37:28.964Z,22.22
2022-10-31T09:42:43.476Z,22.20
2022-10-31T09:48:00.849Z,22.37
2022-10-31T09:53:31.176Z,22.70
2022-10-31T09:58:43.978Z,22.58
2022-10-31T10:03:50.917Z,22.35
2022-10-31T10:08:52.402Z,22.02
2022-10-31T10:14:09.108Z,21.77
2022-10-31T10:19:42.530Z,21.62
2022-10-31T10:25:22.200Z,21.55
2022-10-31T10:30:42.269Z,21.47
2022-10-31T10:35:54.667Z,21.33
2022-10-31T10:40:56.723Z,21.36
2022-10-31T10:46:24.345Z,21.36
2022-10-31T10:51:57.481Z,21.08
2022-10-31T10:57:25.103Z,20.63
2022-10-31T11:02:28.625Z,20.57
2022-10-31T11:07:40.842Z,20.60
2022-10-31T11:12:44.868Z,20.57
2022-10-31T11:17:53.404Z,20.58
2022-10-31T11:23:04.225Z,20.63
2022-10-31T11:28:10.113Z,20.43
2022-10-31T11:33:19.529Z,19.82
2022-10-31T11:38:24.605Z,19.77
2022-10-31T11:43:27.460Z,20.00
2022-10-31T11:48:28.968Z,20.18
2022-10-31T11:53:34.183Z,20.29
2022-10-31T11:58:35.744Z,20.42
2022-10-31T12:04:12.558Z,20.36
2022-10-31T12:09:26.730Z,20.08
2022-10-31T12:14:46.136Z,19.72
2022-10-31T12:20:18.159Z,19.64
2022-10-31T12:25:41.482Z,19.74
2022-10-31T12:31:01.746Z,19.86
2022-10-31T12:36:08.543Z,19.87
2022-10-31T12:41:21.199Z,19.64
2022-10-31T12:46:40.140Z,19.53
2022-10-31T12:51:54.061Z,19.57
2022-10-31T12:57:13.958Z,19.77
2022-10-31T13:02:41.351Z,20.09
2022-10-31T13:07:49.547Z,20.28
2022-10-31T13:12:55.613Z,20.21
2022-10-31T13:18:00.382Z,19.84
2022-10-31T13:23:49.325Z,19.58
2022-10-31T13:28:58.509Z,19.20
2022-10-31T13:34:19.934Z,19.20
2022-10-31T13:39:31.386Z,19.33
2022-10-31T13:44:38.775Z,19.43
2022-10-31T13:49:40.585Z,19.46
2022-10-31T13:54:56.665Z,19.37
2022-10-31T14:00:01.946Z,19.24
2022-10-31T14:05:26.105Z,19.20
2022-10-31T14:10:29.266Z,19.15
2022-10-31T14:15:31.189Z,19.13
2022-10-31T14:20:42.447Z,19.12
2022-10-31T14:25:43.934Z,19.18
2022-10-31T14:30:54.130Z,19.20
2022-10-31T14:36:07.787Z,19.08
2022-10-31T14:41:23.314Z,19.05
2022-10-31T14:46:24.759Z,19.09
2022-10-31T14:51:34.873Z,18.98
2022-10-31T14:56:41.874Z,18.67
2022-10-31T15:01:55.160Z,18.17
2022-10-31T15:07:03.288Z,17.82
2022-10-31T15:12:23.041Z,17.66
2022-10-31T15:17:26.281Z,17.50
2022-10-31T15:22:30.756Z,17.20
2022-10-31T15:27:34.509Z,17.09
2022-10-31T15:32:36.013Z,17.07
2022-10-31T15:37:37.633Z,17.05
2022-10-31T15:42:42.732Z,16.99
2022-10-31T15:47:55.240Z,16.92
2022-10-31T15:52:57.836Z,16.82
2022-10-31T15:58:05.297Z,16.88
2022-10-31T16:03:15.938Z,16.97
2022-10-31T16:08:32.581Z,16.92
2022-10-31T16:13:41.833Z,16.92
2022-10-31T16:18:43.690Z,16.81
2022-10-31T16:23:48.893Z,16.73
2022-10-31T16:29:03.343Z,16.67
2022-10-31T16:34:15.193Z,16.61
2022-10-31T16:39:18.333Z,16.56
2022-10-31T16:44:25.601Z,16.47
2022-10-31T16:49:27.111Z,16.37
2022-10-31T16:54:30.202Z,16.40
2022-10-31T16:59:34.313Z,16.41
2022-10-31T17:09:38.209Z,16.30
2022-10-31T17:14:39.987Z,16.20
2022-10-31T17:19:41.603Z,16.14
2022-10-31T17:24:43.099Z,15.96
2022-10-31T17:29:44.549Z,15.85
2022-10-31T17:34:47.028Z,15.85
2022-10-31T17:39:48.472Z,15.80
2022-10-31T17:44:49.961Z,15.73
2022-10-31T17:49:53.189Z,15.69
2022-10-31T17:54:54.690Z,15.78
2022-10-31T17:59:56.551Z,15.63
2022-10-31T18:04:58.131Z,15.39
2022-10-31T18:10:00.477Z,15.10
2022-10-31T18:15:01.957Z,14.86
2022-10-31T18:20:03.973Z,14.68
2022-10-31T18:25:06.220Z,14.56
2022-10-31T18:30:08.205Z,14.49
2022-10-31T18:35:09.708Z,14.49
2022-10-31T18:40:11.436Z,14.52
2022-10-31T18:45:31.247Z,14.54
2022-10-31T18:50:34.448Z,14.60
2022-10-31T18:55:43.960Z,14.79
2022-10-31T19:00:48.998Z,14.85
2022-10-31T19:05:51.098Z,14.89
2022-10-31T19:10:52.726Z,14.90
2022-10-31T19:15:54.276Z,14.92
2022-10-31T19:20:55.695Z,14.89
2022-10-31T19:25:59.889Z,14.82
2022-10-31T19:31:01.637Z,14.67
2022-10-31T19:36:11.574Z,14.62
2022-10-31T19:41:21.783Z,14.52
2022-10-31T19:46:54.189Z,14.40
2022-10-31T19:51:45.376Z,14.28
2022-10-31T19:56:46.878Z,14.24
2022-10-31T20:01:48.352Z,14.13
2022-10-31T20:06:50.113Z,14.07
2022-10-31T20:11:51.591Z,14.03
2022-10-31T20:16:53.560Z,13.98
2022-10-31T20:21:55.084Z,13.96
2022-10-31T20:26:56.604Z,13.91
2022-10-31T20:31:58.115Z,13.87
2022-10-31T20:36:59.671Z,13.83
2022-10-31T20:42:01.130Z,13.76
2022-10-31T20:47:02.799Z,13.69
2022-10-31T20:52:04.351Z,13.56
2022-10-31T20:57:05.801Z,13.32
2022-10-31T21:02:07.488Z,13.17
2022-10-31T21:07:09.774Z,13.07
2022-10-31T21:12:11.257Z,13.03
2022-10-31T21:17:12.779Z,13.00
2022-10-31T21:22:14.243Z,12.93
2022-10-31T21:27:15.726Z,12.85
2022-10-31T21:32:17.236Z,12.83
2022-10-31T21:37:18.718Z,12.77
2022-10-31T21:42:23.275Z,12.76
2022-10-31T21:47:25.010Z,12.80
2022-10-31T21:52:26.535Z,12.83
2022-10-31T21:57:27.987Z,12.77
2022-10-31T22:02:29.484Z,12.78
2022-10-31T22:07:32.077Z,12.79
2022-10-31T22:12:33.547Z,12.78
2022-10-31T22:17:34.986Z,12.81
2022-10-31T22:22:36.444Z,12.85
2022-10-31T22:27:38.700Z,12.87
2022-10-31T22:32:40.173Z,12.91
2022-10-31T22:37:41.628Z,12.81
2022-10-31T22:42:43.108Z,12.80
2022-10-31T22:47:44.794Z,12.82
2022-10-31T22:52:46.255Z,12.90
2022-10-31T22:57:47.783Z,12.95
2022-10-31T23:02:49.279Z,12.94
2022-10-31T23:07:51.091Z,12.93
2022-10-31T23:13:11.452Z,12.89
2022-10-31T23:18:23.965Z,12.92
2022-10-31T23:23:37.708Z,12.95
2022-10-31T23:28:39.153Z,12.96
2022-10-31T23:33:40.623Z,12.96
2022-10-31T23:38:42.640Z,12.95
2022-10-31T23:43:44.445Z,12.85
2022-10-31T23:48:48.165Z,12.77
2022-10-31T23:53:49.637Z,12.69
2022-10-31T23:58:51.172Z,12.66
